Pagrindinis puslapis
METAR-TAF:

METAR-TAF

Oro uostai :

Woodward, Oklahoma, Jungtinės Amerikos Valstijos

platuma: 36-26-12N, ilguma: 099-31-16W, Aukštis: 667 m

Dabartinis oras

Ataskaita buvo paskelbta 18 minutes, ne 11:15 UTC
Vėjas 5 kt iš Pietų/Pietvakarių
Temperatūra 12°C
Drėgmė 88%
Slėgis 1024 hPa
Matomumas: 16.1 km
Giedras dangus

METAR: KWWR 291115Z AUTO 20005KT 10SM CLR 12/10 A3024 RMK AO2

Laikas: 06:33 (11:33 UTC)

Prognozė

Ataskaita buvo paskelbta 6 valandos ir 13 minutes, ne 05:20 UTC
Prognozė galioja nuo 29 metu 06 UTC su 30 metu 06 UTC
Vėjas 6 kt iš Šiaurės Rytų
Matomumas: 10 km
Išsisklaidę debesys ne aukštis 25000 ft
Nuo 29 metu 1600 UTC
Vėjas 6 kt iš Rytų
Matomumas: 10 km
Mažai debesys ne aukštis 15000 ft
Nuo 29 metu 2200 UTC
Vėjas 12 kt iš Pietryčių
Matomumas: 10 km
Išsisklaidę debesys ne aukštis 15000 ft

TAF: KWWR 290520Z 2906/3006 04006KT P6SM SCT250 FM291600 10006KT P6SM FEW150 FM292200 14012KT P6SM SCT150

Orai ataskaitas ir orų prognozės (METAR, TAF).

turimą stotys yra geltonos ir raudonos taškus žemėlapyje.

Perkelti pele per norėdami pamatyti stoties vardą.

Tada spustelėkite, norėdami matyti oro stebėjimo ir prognozės.

Norėdami pakeisti žemėlapį: spustelėkite ant žalios mygtukų su juodo kryžiaus žemyn,; žalią mygtuką su brūkšneliu, jei norite nutolinti; arba žalių rodyklių gretimoms žemėlapius.


METAR-TAF: